Time;durP1;ratioP1;P1;durP2;ratioP2;P2;SDS_P1;SDS_P2;PMS_P1;PMS_P2;Temp;Humidity;BMP_temperature;BMP_pressure;BME280_temperature;BME280_humidity;BME280_pressure;Samples;Min_cycle;Max_cycle;Signal;HPM_P1;HPM_P2
2021/07/25 00:01:05;;;;;;;7.90;6.40;;;23.90;72.00;;;;;;4954804;29;20223;-50
2021/07/25 00:03:31;;;;;;;8.00;6.80;;;24.00;72.10;;;;;;4954663;29;20271;-48
2021/07/25 00:05:56;;;;;;;7.53;6.80;;;24.10;71.70;;;;;;4954557;29;20195;-48
2021/07/25 00:08:22;;;;;;;8.20;7.37;;;24.30;71.40;;;;;;4955077;29;20695;-47
2021/07/25 00:10:48;;;;;;;9.63;6.30;;;24.40;71.20;;;;;;4954288;28;20202;-49
2021/07/25 00:13:16;;;;;;;8.33;6.93;;;24.50;71.10;;;;;;4954444;29;20207;-47
2021/07/25 00:15:42;;;;;;;6.67;5.97;;;24.50;70.70;;;;;;4954398;28;20436;-47
2021/07/25 00:18:07;;;;;;;8.47;6.60;;;24.60;70.40;;;;;;4952881;29;20887;-48
2021/07/25 00:20:33;;;;;;;7.70;6.90;;;24.50;70.30;;;;;;4945976;29;20189;-49
2021/07/25 00:23:01;;;;;;;8.00;6.80;;;24.50;70.30;;;;;;4935195;29;20212;-48
2021/07/25 00:25:27;;;;;;;7.67;6.50;;;24.30;71.10;;;;;;4934797;29;20455;-52
2021/07/25 00:27:54;;;;;;;8.30;7.40;;;24.20;71.50;;;;;;4935523;29;20949;-48
2021/07/25 00:30:22;;;;;;;8.37;7.40;;;24.00;72.00;;;;;;4935505;29;20649;-51
2021/07/25 00:32:48;;;;;;;12.70;7.73;;;23.90;72.80;;;;;;4934704;29;20420;-48
2021/07/25 00:35:14;;;;;;;10.17;7.60;;;23.70;73.40;;;;;;4935679;29;20436;-50
2021/07/25 00:37:44;;;;;;;9.07;8.17;;;23.40;74.60;;;;;;4934560;29;20480;-50
2021/07/25 00:40:22;;;;;;;10.50;8.30;;;23.20;75.90;;;;;;4935067;29;20440;-48
2021/07/25 00:42:48;;;;;;;8.10;7.40;;;23.20;76.30;;;;;;4932924;29;20442;-47
2021/07/25 00:45:14;;;;;;;10.20;9.20;;;23.30;76.10;;;;;;4942028;29;20420;-50
2021/07/25 00:47:39;;;;;;;11.03;8.93;;;23.40;75.50;;;;;;4953570;29;20187;-51
2021/07/25 00:50:07;;;;;;;9.63;8.73;;;23.50;75.40;;;;;;4954075;28;20232;-48
2021/07/25 00:52:32;;;;;;;8.80;7.90;;;23.70;74.90;;;;;;4953859;28;20287;-47
2021/07/25 00:55:00;;;;;;;9.23;8.23;;;23.80;74.10;;;;;;4953990;29;20518;-51
2021/07/25 00:57:26;;;;;;;11.07;8.80;;;24.00;73.70;;;;;;4953478;29;20200;-48
2021/07/25 00:59:51;;;;;;;10.60;9.60;;;23.90;73.40;;;;;;4953899;29;20443;-51
2021/07/25 01:02:17;;;;;;;13.47;9.10;;;24.00;73.30;;;;;;4953368;29;20479;-47
2021/07/25 01:05:02;;;;;;;10.83;9.70;;;24.10;73.20;;;;;;4953745;29;20566;-48
2021/07/25 01:07:35;;;;;;;9.63;8.73;;;23.90;73.40;;;;;;4953462;29;20199;-49
2021/07/25 01:10:17;;;;;;;10.50;8.50;;;23.70;74.40;;;;;;4951999;29;20487;-48
2021/07/25 01:13:12;;;;;;;10.30;9.40;;;23.50;75.80;;;;;;4952952;28;20428;-47
2021/07/25 01:15:40;;;;;;;9.87;8.87;;;23.40;76.60;;;;;;4953157;28;20437;-52
2021/07/25 01:18:06;;;;;;;10.43;9.43;;;23.40;76.30;;;;;;4953499;29;20562;-50
2021/07/25 01:20:32;;;;;;;9.50;8.70;;;23.50;75.90;;;;;;4945123;29;20539;-51
2021/07/25 01:22:59;;;;;;;10.30;8.30;;;23.70;75.00;;;;;;4934077;29;20200;-47
2021/07/25 01:25:26;;;;;;;11.40;8.70;;;23.80;73.70;;;;;;4934162;29;20220;-51
2021/07/25 01:27:54;;;;;;;9.50;8.60;;;23.60;73.90;;;;;;4934265;29;20436;-47
2021/07/25 01:30:23;;;;;;;10.23;8.67;;;23.50;74.70;;;;;;4934391;29;20498;-57
2021/07/25 01:32:53;;;;;;;10.63;9.40;;;23.40;75.10;;;;;;4933907;29;20432;-48
2021/07/25 01:35:21;;;;;;;10.30;9.30;;;23.20;76.20;;;;;;4933954;29;20484;-47
2021/07/25 01:37:47;;;;;;;10.30;9.20;;;23.10;76.10;;;;;;4933461;29;20916;-47
2021/07/25 01:40:15;;;;;;;10.13;9.07;;;23.10;76.50;;;;;;4934687;29;20443;-47
2021/07/25 01:42:41;;;;;;;10.97;9.97;;;22.90;78.50;;;;;;4933462;29;20287;-47
2021/07/25 01:45:07;;;;;;;10.03;9.03;;;23.00;78.70;;;;;;4940101;29;20999;-46
2021/07/25 01:47:34;;;;;;;10.50;9.30;;;22.90;78.80;;;;;;4952660;29;20467;-51
2021/07/25 01:50:00;;;;;;;15.23;10.27;;;23.10;78.20;;;;;;4953145;28;20926;-47
2021/07/25 01:52:26;;;;;;;9.87;8.90;;;23.40;77.00;;;;;;4956174;29;20515;-47
2021/07/25 01:54:51;;;;;;;15.40;10.27;;;23.60;76.20;;;;;;4957169;29;20226;-50
2021/07/25 01:57:17;;;;;;;10.47;9.33;;;23.80;75.50;;;;;;4956989;28;20578;-50
2021/07/25 01:59:42;;;;;;;11.50;10.40;;;24.00;75.00;;;;;;4957564;28;20247;-47
2021/07/25 02:02:08;;;;;;;11.07;9.40;;;24.10;74.40;;;;;;4954876;28;20660;-47
2021/07/25 02:04:33;;;;;;;10.43;9.20;;;24.20;73.70;;;;;;4957082;29;20191;-50
2021/07/25 02:06:59;;;;;;;11.03;9.47;;;24.30;73.20;;;;;;4956628;29;20198;-49
2021/07/25 02:09:25;;;;;;;10.93;9.17;;;24.30;72.80;;;;;;4957253;28;20231;-48
2021/07/25 02:11:51;;;;;;;10.40;9.40;;;24.40;72.60;;;;;;4956194;29;20246;-52
2021/07/25 02:14:17;;;;;;;9.97;8.87;;;24.40;72.30;;;;;;4956667;29;20495;-47
2021/07/25 02:16:42;;;;;;;10.87;9.77;;;24.40;72.20;;;;;;4956632;29;20271;-47
2021/07/25 02:19:08;;;;;;;11.40;8.50;;;24.50;72.20;;;;;;4956759;28;20240;-47
2021/07/25 02:21:33;;;;;;;12.77;9.23;;;24.50;72.10;;;;;;4940303;29;20211;-50
2021/07/25 02:23:59;;;;;;;10.87;8.70;;;24.50;72.20;;;;;;4937366;29;20201;-49
2021/07/25 02:26:25;;;;;;;22.17;11.73;;;24.60;72.20;;;;;;4937265;29;20219;-47
2021/07/25 02:28:50;;;;;;;13.90;9.27;;;24.60;72.00;;;;;;4935931;29;20220;-47
2021/07/25 02:31:16;;;;;;;10.90;8.67;;;24.60;71.80;;;;;;4937104;29;20196;-48
2021/07/25 02:33:41;;;;;;;10.30;9.20;;;24.70;71.80;;;;;;4937174;29;20192;-50
2021/07/25 02:36:07;;;;;;;9.40;8.47;;;24.70;71.70;;;;;;4936977;29;20232;-53
2021/07/25 02:38:32;;;;;;;10.33;9.17;;;24.70;71.50;;;;;;4937704;29;20201;-49
2021/07/25 02:40:59;;;;;;;11.60;9.70;;;24.70;71.30;;;;;;4936883;29;20257;-47
2021/07/25 02:43:25;;;;;;;13.50;9.90;;;24.70;71.10;;;;;;4936998;29;20204;-50
2021/07/25 02:45:50;;;;;;;13.23;9.60;;;24.70;71.30;;;;;;4948491;28;20428;-52
2021/07/25 02:48:16;;;;;;;12.17;9.83;;;24.80;71.40;;;;;;4956433;29;20200;-49
2021/07/25 02:50:41;;;;;;;11.37;10.23;;;24.80;71.30;;;;;;4956054;28;20605;-47
2021/07/25 02:53:07;;;;;;;11.30;9.53;;;24.70;71.20;;;;;;4956112;29;20674;-47
2021/07/25 02:55:33;;;;;;;10.03;9.10;;;24.70;71.20;;;;;;4953843;29;20719;-51
2021/07/25 02:57:58;;;;;;;11.00;9.83;;;24.80;71.10;;;;;;4956525;29;20291;-51
2021/07/25 03:00:25;;;;;;;9.37;8.47;;;24.80;70.90;;;;;;4955916;29;20192;-50
2021/07/25 03:02:50;;;;;;;10.37;9.10;;;24.80;70.70;;;;;;4954754;28;20290;-47
2021/07/25 03:05:16;;;;;;;11.97;9.50;;;24.80;70.60;;;;;;4955950;29;20773;-52
2021/07/25 03:07:42;;;;;;;12.03;9.20;;;24.80;70.40;;;;;;4955561;28;20559;-51
2021/07/25 03:10:07;;;;;;;10.83;8.63;;;24.80;70.50;;;;;;4956020;29;20239;-52
2021/07/25 03:12:33;;;;;;;10.13;9.10;;;24.80;70.80;;;;;;4955015;29;20199;-46
2021/07/25 03:14:59;;;;;;;10.17;8.73;;;24.80;70.80;;;;;;4955883;28;20846;-47
2021/07/25 03:17:24;;;;;;;9.93;9.00;;;24.80;70.80;;;;;;4938319;29;20335;-52
2021/07/25 03:19:50;;;;;;;10.70;9.30;;;24.80;70.90;;;;;;4953296;29;20198;-52
2021/07/25 03:22:16;;;;;;;10.77;9.67;;;24.80;70.80;;;;;;4934652;29;20271;-48
2021/07/25 03:24:41;;;;;;;10.47;9.43;;;24.80;71.50;;;;;;4936401;29;20201;-48
2021/07/25 03:27:07;;;;;;;10.00;8.83;;;24.80;70.80;;;;;;4936106;29;20184;-51
2021/07/25 03:29:32;;;;;;;10.23;9.00;;;24.80;70.80;;;;;;4936470;29;20743;-50
2021/07/25 03:31:58;;;;;;;12.47;9.47;;;24.80;70.80;;;;;;4936062;29;20248;-50
2021/07/25 03:34:24;;;;;;;12.40;9.57;;;24.80;70.60;;;;;;4936056;29;20207;-47
2021/07/25 03:36:49;;;;;;;10.30;9.00;;;24.80;70.50;;;;;;4936135;29;20205;-48
2021/07/25 03:39:19;;;;;;;12.23;9.80;;;24.80;70.50;;;;;;4936612;29;20200;-50
2021/07/25 03:41:45;;;;;;;13.57;10.03;;;24.70;70.40;;;;;;4936128;29;20224;-48
2021/07/25 03:44:10;;;;;;;13.07;10.07;;;24.70;70.60;;;;;;4936051;29;20487;-47
2021/07/25 03:46:36;;;;;;;13.17;10.17;;;24.50;70.70;;;;;;4953489;28;20199;-49
2021/07/25 03:49:02;;;;;;;10.70;9.60;;;24.30;71.80;;;;;;4953387;29;20246;-49
2021/07/25 03:51:28;;;;;;;9.43;8.53;;;24.30;71.70;;;;;;4954913;29;20200;-52
2021/07/25 03:53:54;;;;;;;10.23;9.30;;;24.50;71.60;;;;;;4954950;29;20227;-49
2021/07/25 03:56:20;;;;;;;12.40;9.50;;;24.50;71.30;;;;;;4954772;29;20243;-51
2021/07/25 03:58:45;;;;;;;14.10;10.27;;;24.60;71.10;;;;;;4954821;29;20560;-50
2021/07/25 04:01:11;;;;;;;9.60;8.60;;;24.60;70.70;;;;;;4954630;28;20447;-49
2021/07/25 04:03:37;;;;;;;10.03;9.13;;;24.70;70.50;;;;;;4954766;29;20553;-47
2021/07/25 04:06:03;;;;;;;10.57;9.47;;;24.70;70.20;;;;;;4954382;28;20262;-50
2021/07/25 04:08:28;;;;;;;9.57;8.70;;;24.70;70.00;;;;;;4955111;29;20301;-50
2021/07/25 04:10:54;;;;;;;7.77;7.07;;;24.70;69.80;;;;;;4954475;28;20199;-53
2021/07/25 04:13:20;;;;;;;10.37;8.30;;;24.70;69.80;;;;;;4954286;28;20223;-50
2021/07/25 04:15:47;;;;;;;9.77;8.77;;;24.70;69.70;;;;;;4953033;29;20583;-50
2021/07/25 04:18:13;;;;;;;11.33;8.30;;;24.70;69.50;;;;;;4954865;29;20264;-49
2021/07/25 04:20:39;;;;;;;10.53;8.77;;;24.70;69.20;;;;;;4945399;28;20466;-47
2021/07/25 04:23:05;;;;;;;10.37;9.03;;;24.70;69.20;;;;;;4934925;29;20948;-51
2021/07/25 04:25:31;;;;;;;10.13;8.87;;;24.60;69.10;;;;;;4934972;29;20545;-48
2021/07/25 04:27:58;;;;;;;10.97;8.50;;;24.60;69.30;;;;;;4935635;29;20203;-49
2021/07/25 04:30:25;;;;;;;9.70;8.10;;;24.60;69.20;;;;;;4935103;29;20542;-49
2021/07/25 04:32:51;;;;;;;12.57;8.70;;;24.60;69.50;;;;;;4934897;29;20437;-49
2021/07/25 04:35:17;;;;;;;8.77;7.83;;;24.60;69.70;;;;;;4935372;29;20428;-52
2021/07/25 04:37:53;;;;;;;9.10;7.80;;;24.60;69.80;;;;;;4934867;29;20279;-48
2021/07/25 04:40:19;;;;;;;8.97;8.07;;;24.50;69.80;;;;;;4935020;29;20443;-52
2021/07/25 04:42:54;;;;;;;10.10;7.70;;;24.60;69.90;;;;;;4931718;29;20441;-47
2021/07/25 04:45:25;;;;;;;11.60;8.90;;;24.60;69.80;;;;;;4942800;29;20435;-47
2021/07/25 04:48:35;;;;;;;8.80;7.97;;;24.60;70.20;;;;;;4953830;29;20431;-53
2021/07/25 04:51:08;;;;;;;9.57;8.47;;;24.60;70.30;;;;;;4894199;29;20461;-52
2021/07/25 04:53:38;;;;;;;9.60;8.30;;;24.60;70.20;;;;;;4944046;29;20471;-51
2021/07/25 04:56:06;;;;;;;8.87;8.00;;;24.70;70.20;;;;;;4953523;29;20486;-49
2021/07/25 04:58:34;;;;;;;8.70;7.90;;;24.70;70.30;;;;;;4953668;29;20759;-48
2021/07/25 05:01:02;;;;;;;9.83;8.90;;;24.70;70.40;;;;;;4953601;29;20446;-47
2021/07/25 05:03:31;;;;;;;9.90;9.10;;;24.70;70.40;;;;;;4953629;29;20424;-48
2021/07/25 05:05:57;;;;;;;10.20;9.10;;;24.70;70.60;;;;;;4953543;28;20443;-51
2021/07/25 05:08:23;;;;;;;9.80;8.90;;;24.60;70.80;;;;;;4952238;29;20454;-49
2021/07/25 05:10:51;;;;;;;11.70;9.87;;;24.30;71.80;;;;;;4953511;28;20515;-52
2021/07/25 05:13:20;;;;;;;10.37;9.37;;;24.30;72.10;;;;;;4953524;29;20196;-47
2021/07/25 05:15:46;;;;;;;10.90;9.77;;;24.30;71.80;;;;;;4953371;28;21030;-48
2021/07/25 05:18:32;;;;;;;10.73;9.50;;;24.50;71.50;;;;;;4953667;29;20568;-49
2021/07/25 05:21:22;;;;;;;10.40;9.50;;;24.60;71.30;;;;;;4941898;29;20433;-52
2021/07/25 05:23:50;;;;;;;19.40;15.00;;;24.60;71.20;;;;;;4934332;29;20456;-51
2021/07/25 05:26:17;;;;;;;15.50;10.90;;;24.30;72.00;;;;;;4933401;29;20434;-52
2021/07/25 05:28:43;;;;;;;12.90;9.57;;;24.20;72.30;;;;;;4934582;29;20451;-52
2021/07/25 05:31:10;;;;;;;10.83;9.87;;;23.90;74.60;;;;;;4933946;29;20862;-52
2021/07/25 05:33:35;;;;;;;13.67;9.87;;;23.80;74.10;;;;;;4933085;29;20432;-51
2021/07/25 05:36:01;;;;;;;10.70;9.77;;;23.90;74.10;;;;;;4933178;29;20789;-49
2021/07/25 05:38:27;;;;;;;9.77;8.90;;;23.90;74.10;;;;;;4934313;29;20196;-51
2021/07/25 05:40:53;;;;;;;10.80;9.83;;;23.90;73.90;;;;;;4933806;29;20267;-48
2021/07/25 05:43:19;;;;;;;10.63;9.57;;;23.90;74.40;;;;;;4934128;29;20516;-53
2021/07/25 05:45:44;;;;;;;10.63;9.63;;;23.60;74.90;;;;;;4944799;29;20966;-48
2021/07/25 05:48:10;;;;;;;10.20;9.20;;;23.50;75.70;;;;;;4953527;29;20192;-51
2021/07/25 05:50:36;;;;;;;10.73;9.80;;;23.50;75.80;;;;;;4952740;28;20235;-52
2021/07/25 05:53:03;;;;;;;11.00;9.27;;;23.40;76.00;;;;;;4953019;29;20250;-52
2021/07/25 05:55:32;;;;;;;11.07;9.90;;;23.50;76.20;;;;;;4952841;29;20431;-53
2021/07/25 05:57:58;;;;;;;10.73;9.70;;;23.50;76.10;;;;;;4953447;29;20428;-51
2021/07/25 06:00:24;;;;;;;11.10;10.03;;;23.60;76.60;;;;;;4951454;28;20427;-51
2021/07/25 06:02:50;;;;;;;9.93;9.10;;;23.70;75.60;;;;;;4953005;28;20839;-47
2021/07/25 06:05:16;;;;;;;13.90;11.10;;;23.80;75.30;;;;;;4953497;29;20648;-52
2021/07/25 06:07:42;;;;;;;11.37;10.27;;;23.90;75.00;;;;;;4952819;28;20455;-51
2021/07/25 06:10:08;;;;;;;10.37;9.37;;;23.90;75.10;;;;;;4953174;28;20286;-51
2021/07/25 06:12:36;;;;;;;9.30;8.40;;;23.90;75.10;;;;;;4952454;28;20575;-49
2021/07/25 06:15:02;;;;;;;17.63;10.43;;;24.00;75.10;;;;;;4953317;28;20419;-48
2021/07/25 06:17:28;;;;;;;12.00;10.77;;;23.90;76.00;;;;;;4952356;29;20466;-51
2021/07/25 06:19:53;;;;;;;11.93;10.10;;;24.00;75.50;;;;;;4950212;29;20436;-52
2021/07/25 06:22:19;;;;;;;10.17;9.37;;;24.10;75.50;;;;;;4933090;29;20201;-50
2021/07/25 06:24:44;;;;;;;11.37;10.27;;;24.10;76.00;;;;;;4934108;29;20200;-47
2021/07/25 06:27:10;;;;;;;14.33;10.80;;;24.10;75.30;;;;;;4931687;29;20204;-51
2021/07/25 06:29:35;;;;;;;11.00;9.90;;;24.20;75.40;;;;;;4934210;29;20232;-51
2021/07/25 06:32:01;;;;;;;11.33;10.07;;;24.30;75.10;;;;;;4933463;29;20193;-51
2021/07/25 06:34:27;;;;;;;10.87;9.63;;;24.40;75.30;;;;;;4933495;29;20197;-52
2021/07/25 06:36:52;;;;;;;9.60;8.80;;;24.50;74.90;;;;;;4934441;29;20208;-51
2021/07/25 06:39:18;;;;;;;11.43;9.03;;;24.60;74.60;;;;;;4937234;29;20200;-49
2021/07/25 06:41:43;;;;;;;10.97;9.90;;;24.60;73.80;;;;;;4937068;29;20227;-53
2021/07/25 06:44:09;;;;;;;10.73;9.70;;;24.70;73.60;;;;;;4937009;29;20657;-53
2021/07/25 06:46:34;;;;;;;10.27;8.50;;;24.70;73.20;;;;;;4954351;28;20572;-53
2021/07/25 06:49:00;;;;;;;12.90;9.60;;;24.60;73.40;;;;;;4956226;28;20208;-51
2021/07/25 06:51:26;;;;;;;9.93;8.70;;;24.50;74.00;;;;;;4956029;29;20208;-47
2021/07/25 06:53:51;;;;;;;11.40;10.30;;;24.40;74.00;;;;;;4954408;29;20231;-52
2021/07/25 06:56:17;;;;;;;9.60;8.70;;;24.40;74.20;;;;;;4955691;29;20668;-51
2021/07/25 06:58:44;;;;;;;10.00;9.00;;;24.60;74.40;;;;;;4956189;28;20549;-50
2021/07/25 07:01:11;;;;;;;9.83;8.57;;;24.70;74.30;;;;;;4955682;28;20204;-51
2021/07/25 07:03:38;;;;;;;9.40;8.40;;;24.70;74.10;;;;;;4955835;29;20498;-50
2021/07/25 07:06:07;;;;;;;9.90;8.90;;;24.70;73.00;;;;;;4955377;29;20443;-50
2021/07/25 07:08:33;;;;;;;10.47;8.13;;;24.80;73.40;;;;;;4955901;28;20773;-51
2021/07/25 07:10:59;;;;;;;9.07;8.17;;;25.00;73.30;;;;;;4955464;29;20471;-51
2021/07/25 07:13:25;;;;;;;9.93;9.00;;;25.10;73.10;;;;;;4955699;28;20204;-51
2021/07/25 07:15:51;;;;;;;10.13;8.30;;;25.30;72.90;;;;;;4955637;29;20511;-49
2021/07/25 07:18:18;;;;;;;8.90;8.10;;;25.50;72.10;;;;;;4955658;28;20566;-52
2021/07/25 07:20:44;;;;;;;9.83;8.77;;;25.60;71.30;;;;;;4944828;29;20204;-52
2021/07/25 07:23:16;;;;;;;8.97;7.70;;;25.80;70.80;;;;;;4936299;29;20812;-50
2021/07/25 07:25:44;;;;;;;7.53;6.67;;;26.00;69.80;;;;;;4936285;29;20718;-52
2021/07/25 07:28:11;;;;;;;7.63;6.83;;;25.60;67.70;;;;;;4936612;29;20436;-51
2021/07/25 07:30:37;;;;;;;8.83;7.03;;;25.50;68.80;;;;;;4936001;29;21003;-49
2021/07/25 07:33:12;;;;;;;14.30;7.37;;;25.60;67.70;;;;;;4936301;29;20464;-49
2021/07/25 07:35:39;;;;;;;10.53;6.60;;;26.00;68.10;;;;;;4935942;29;20440;-53
2021/07/25 07:38:06;;;;;;;7.67;7.07;;;25.80;67.30;;;;;;4936454;29;20433;-49
2021/07/25 07:40:32;;;;;;;8.77;7.90;;;26.10;68.90;;;;;;4935730;29;20476;-53
2021/07/25 07:42:58;;;;;;;7.80;6.73;;;26.20;65.80;;;;;;4936065;29;20460;-51
2021/07/25 07:45:24;;;;;;;7.17;6.57;;;26.40;65.10;;;;;;4944337;29;20452;-49
2021/07/25 07:47:50;;;;;;;7.60;7.00;;;26.50;64.50;;;;;;4953523;28;20428;-52
2021/07/25 07:50:17;;;;;;;6.70;6.10;;;26.70;64.20;;;;;;4954940;29;20796;-49
2021/07/25 07:52:43;;;;;;;7.90;6.40;;;26.80;63.10;;;;;;4954440;28;20200;-52
2021/07/25 07:55:09;;;;;;;7.50;6.70;;;26.60;63.30;;;;;;4955324;29;20571;-53
2021/07/25 07:57:34;;;;;;;6.97;6.33;;;26.80;63.50;;;;;;4954514;29;20245;-51
2021/07/25 08:00:00;;;;;;;6.23;5.73;;;26.90;62.70;;;;;;4955116;29;20531;-53
2021/07/25 08:02:25;;;;;;;7.57;6.60;;;27.10;63.00;;;;;;4936842;29;20207;-52
2021/07/25 08:04:51;;;;;;;7.40;6.37;;;27.20;62.70;;;;;;4955390;28;20557;-51
2021/07/25 08:07:17;;;;;;;7.30;6.60;;;27.20;61.80;;;;;;4954374;28;20300;-52
2021/07/25 08:09:42;;;;;;;7.00;6.30;;;27.20;61.10;;;;;;4955159;29;20688;-54
2021/07/25 08:12:09;;;;;;;8.53;6.10;;;27.40;61.90;;;;;;4954181;29;20585;-53
2021/07/25 08:14:35;;;;;;;6.57;5.97;;;27.50;60.60;;;;;;4953512;28;20192;-52
2021/07/25 08:17:00;;;;;;;6.30;5.70;;;27.50;60.70;;;;;;4953775;29;20810;-52
2021/07/25 08:19:27;;;;;;;7.67;6.20;;;27.50;60.10;;;;;;4954619;28;20432;-51
2021/07/25 08:21:53;;;;;;;7.27;6.53;;;27.40;59.30;;;;;;4935693;28;20275;-52
2021/07/25 08:24:18;;;;;;;7.00;6.37;;;27.50;60.00;;;;;;4935316;29;20444;-52
2021/07/25 08:26:44;;;;;;;9.87;6.70;;;27.60;60.00;;;;;;4935002;29;20556;-53
2021/07/25 08:29:09;;;;;;;6.60;6.00;;;27.70;60.20;;;;;;4935453;29;20710;-50
2021/07/25 08:31:35;;;;;;;6.80;6.20;;;27.80;60.90;;;;;;4935146;29;20603;-52
2021/07/25 08:34:01;;;;;;;6.70;6.10;;;27.90;60.00;;;;;;4935096;29;20695;-51
2021/07/25 08:36:27;;;;;;;7.53;6.57;;;27.90;59.80;;;;;;4934647;29;20284;-53
2021/07/25 08:38:52;;;;;;;7.80;6.13;;;28.00;60.00;;;;;;4934549;29;20441;-52
2021/07/25 08:41:39;;;;;;;7.47;6.20;;;28.00;59.50;;;;;;4934383;29;20244;-52
2021/07/25 08:44:23;;;;;;;9.60;5.80;;;28.00;59.60;;;;;;4934688;29;20665;-53
2021/07/25 08:46:57;;;;;;;7.13;6.50;;;28.10;59.20;;;;;;4953684;28;20510;-53
2021/07/25 08:49:48;;;;;;;6.47;5.90;;;28.10;59.30;;;;;;4954125;28;20497;-53
2021/07/25 08:52:23;;;;;;;9.07;6.23;;;28.20;58.50;;;;;;4946623;29;20447;-52
2021/07/25 08:54:49;;;;;;;7.20;6.50;;;28.20;58.30;;;;;;4954477;29;20435;-51
2021/07/25 08:57:17;;;;;;;6.27;5.63;;;28.10;57.90;;;;;;4953735;29;20904;-50
2021/07/25 08:59:45;;;;;;;7.53;6.50;;;28.10;57.40;;;;;;4953720;28;20427;-50
2021/07/25 09:02:27;;;;;;;7.23;6.53;;;28.00;58.40;;;;;;4952589;29;20443;-48
2021/07/25 09:04:54;;;;;;;7.13;6.53;;;27.90;58.30;;;;;;4954116;29;20435;-50
2021/07/25 09:07:22;;;;;;;6.67;5.93;;;27.90;58.70;;;;;;4951465;29;20434;-51
2021/07/25 09:09:55;;;;;;;7.33;6.60;;;27.90;58.20;;;;;;4953839;29;20487;-47
2021/07/25 09:12:21;;;;;;;8.13;6.27;;;27.70;58.60;;;;;;4952892;29;20449;-49
2021/07/25 09:14:50;;;;;;;8.73;6.33;;;27.70;59.00;;;;;;4953935;28;20446;-52
2021/07/25 09:17:16;;;;;;;6.70;6.10;;;27.80;59.10;;;;;;4953265;29;20817;-52
2021/07/25 09:20:09;;;;;;;6.77;6.13;;;27.90;59.00;;;;;;4952672;29;20435;-51
2021/07/25 09:22:48;;;;;;;6.60;6.00;;;28.00;58.50;;;;;;4933735;29;20441;-53
2021/07/25 09:25:19;;;;;;;8.10;6.70;;;28.00;58.40;;;;;;4935103;29;20420;-53
2021/07/25 09:27:45;;;;;;;6.93;6.33;;;28.10;58.60;;;;;;4934004;29;20433;-53
2021/07/25 09:30:18;;;;;;;7.83;5.83;;;28.20;58.50;;;;;;4934598;29;20500;-52
2021/07/25 09:32:45;;;;;;;6.97;6.27;;;28.10;58.40;;;;;;4931962;29;20681;-53
2021/07/25 09:35:31;;;;;;;6.83;6.27;;;28.00;58.20;;;;;;4934302;29;20575;-52
2021/07/25 09:38:10;;;;;;;6.87;6.27;;;28.00;58.70;;;;;;4934215;29;20440;-52
2021/07/25 09:40:40;;;;;;;6.57;6.00;;;27.90;58.60;;;;;;4933746;29;20439;-54
2021/07/25 09:43:11;;;;;;;7.07;5.80;;;27.90;58.40;;;;;;4934006;29;20494;-52
2021/07/25 09:45:50;;;;;;;7.57;6.60;;;27.80;58.10;;;;;;4943584;29;20439;-52
2021/07/25 09:48:16;;;;;;;6.93;6.20;;;27.40;59.00;;;;;;4953515;28;20542;-49
2021/07/25 09:50:42;;;;;;;6.93;6.30;;;27.40;59.50;;;;;;4952691;28;21079;-47
2021/07/25 09:53:08;;;;;;;6.90;6.30;;;27.30;60.30;;;;;;4952950;29;20518;-48
2021/07/25 09:55:34;;;;;;;6.50;5.87;;;27.50;60.40;;;;;;4952764;28;20547;-48
2021/07/25 09:57:59;;;;;;;6.90;6.30;;;27.60;59.80;;;;;;4953513;29;20243;-48
2021/07/25 10:00:37;;;;;;;8.00;6.57;;;27.80;59.50;;;;;;4951301;29;20646;-47
2021/07/25 10:03:22;;;;;;;7.70;6.20;;;27.90;59.10;;;;;;4953192;29;20235;-48
2021/07/25 10:05:48;;;;;;;6.23;5.63;;;28.00;59.00;;;;;;4952543;29;20467;-48
2021/07/25 10:08:19;;;;;;;7.10;6.50;;;28.10;59.00;;;;;;4953633;28;20432;-48
2021/07/25 10:10:46;;;;;;;7.00;6.30;;;28.00;59.10;;;;;;4940328;29;20637;-47
2021/07/25 10:13:18;;;;;;;6.50;5.60;;;27.90;59.30;;;;;;4955727;28;20552;-49
2021/07/25 10:15:53;;;;;;;7.83;7.00;;;27.80;58.90;;;;;;4956672;28;21127;-48
2021/07/25 10:18:21;;;;;;;8.10;6.93;;;27.70;59.10;;;;;;4956597;29;20467;-51
2021/07/25 10:20:48;;;;;;;6.60;6.00;;;27.70;59.30;;;;;;4946649;28;20443;-48
2021/07/25 10:23:16;;;;;;;7.40;6.50;;;27.70;59.70;;;;;;4937346;29;20428;-49
2021/07/25 10:25:48;;;;;;;7.10;6.50;;;27.70;59.00;;;;;;4935596;29;20527;-49
2021/07/25 10:28:18;;;;;;;7.87;7.07;;;27.70;58.10;;;;;;4937844;29;20429;-47
2021/07/25 10:30:45;;;;;;;8.17;7.37;;;27.80;58.00;;;;;;4937153;29;20554;-52
2021/07/25 10:33:15;;;;;;;7.10;6.50;;;27.80;58.10;;;;;;4937239;29;20433;-47
2021/07/25 10:35:41;;;;;;;7.00;6.50;;;27.90;58.40;;;;;;4935899;29;20571;-48
2021/07/25 10:38:07;;;;;;;9.40;8.10;;;27.90;58.30;;;;;;4937765;29;20779;-51
2021/07/25 10:40:33;;;;;;;8.27;7.47;;;27.70;58.80;;;;;;4936993;29;20440;-47
2021/07/25 10:42:59;;;;;;;7.20;6.50;;;27.30;59.80;;;;;;4936980;29;20201;-48
2021/07/25 10:45:25;;;;;;;7.53;6.27;;;27.30;59.30;;;;;;4945538;29;20842;-52
2021/07/25 10:47:51;;;;;;;7.00;6.40;;;27.30;58.90;;;;;;4956618;29;20459;-49
2021/07/25 10:50:21;;;;;;;7.20;6.60;;;27.50;58.80;;;;;;4956459;28;20231;-47
2021/07/25 10:52:54;;;;;;;7.07;6.33;;;27.50;59.10;;;;;;4953649;28;20474;-49
2021/07/25 10:55:39;;;;;;;7.60;5.73;;;27.60;59.00;;;;;;4956224;29;20450;-49
2021/07/25 10:58:06;;;;;;;7.07;6.37;;;27.50;59.00;;;;;;4956321;29;20434;-47
2021/07/25 11:00:50;;;;;;;8.77;6.03;;;27.60;59.30;;;;;;4955810;28;20428;-48
2021/07/25 11:03:30;;;;;;;7.43;6.40;;;27.80;58.60;;;;;;4955840;28;20443;-51
2021/07/25 11:06:02;;;;;;;8.17;6.33;;;27.90;58.50;;;;;;4955778;29;20439;-48
2021/07/25 11:08:54;;;;;;;6.70;6.20;;;27.90;58.80;;;;;;4956322;29;20431;-49
2021/07/25 11:11:43;;;;;;;6.87;6.27;;;27.90;59.30;;;;;;4952889;28;20476;-48
2021/07/25 11:14:09;;;;;;;7.20;6.47;;;27.90;59.00;;;;;;4956015;29;20920;-51
2021/07/25 11:16:42;;;;;;;7.20;6.13;;;27.90;58.50;;;;;;4955518;29;20435;-52
2021/07/25 11:19:08;;;;;;;6.30;5.70;;;28.00;59.20;;;;;;4954458;29;20604;-53
2021/07/25 11:21:40;;;;;;;6.10;5.60;;;27.90;59.00;;;;;;4939099;29;20439;-49
2021/07/25 11:24:22;;;;;;;6.10;5.50;;;27.90;59.10;;;;;;4935514;29;20712;-53
2021/07/25 11:26:59;;;;;;;5.10;4.70;;;27.80;58.90;;;;;;4936016;29;20583;-52
2021/07/25 11:29:34;;;;;;;6.37;5.77;;;27.80;58.70;;;;;;4936708;29;20551;-49
2021/07/25 11:32:01;;;;;;;6.13;5.53;;;27.90;58.30;;;;;;4935447;29;20877;-48
2021/07/25 11:34:33;;;;;;;6.10;5.60;;;28.00;58.10;;;;;;4936506;29;20432;-49
2021/07/25 11:37:08;;;;;;;6.33;5.80;;;28.00;57.70;;;;;;4935914;29;20486;-48
2021/07/25 11:39:34;;;;;;;6.83;6.03;;;27.90;57.60;;;;;;4936213;29;20578;-47
2021/07/25 11:42:07;;;;;;;6.10;5.57;;;27.90;58.30;;;;;;4935739;29;20429;-50
2021/07/25 11:44:33;;;;;;;7.97;4.57;;;27.90;57.90;;;;;;4936221;29;20436;-51
2021/07/25 11:47:03;;;;;;;5.00;4.60;;;27.90;57.40;;;;;;4954920;29;20934;-49
2021/07/25 11:49:36;;;;;;;4.90;4.50;;;27.90;57.10;;;;;;4936797;29;20878;-50
2021/07/25 11:52:09;;;;;;;5.67;4.77;;;27.90;57.70;;;;;;4941712;29;20432;-48
2021/07/25 11:54:37;;;;;;;4.50;4.10;;;28.00;56.80;;;;;;4936256;29;20437;-50
2021/07/25 11:57:14;;;;;;;8.83;4.83;;;28.10;56.40;;;;;;4935651;29;20447;-50
2021/07/25 11:59:49;;;;;;;6.03;4.90;;;28.00;56.40;;;;;;4936243;29;20436;-49
2021/07/25 12:02:22;;;;;;;4.50;4.10;;;28.20;56.10;;;;;;4935183;29;20464;-48
2021/07/25 12:04:47;;;;;;;4.53;4.17;;;28.20;55.10;;;;;;4936320;29;20436;-50
2021/07/25 12:07:17;;;;;;;5.50;4.37;;;28.20;55.30;;;;;;4934178;29;20443;-51
2021/07/25 12:09:51;;;;;;;5.30;4.87;;;28.40;55.10;;;;;;4936318;29;20263;-53
2021/07/25 12:12:29;;;;;;;5.20;4.70;;;28.40;54.80;;;;;;4933195;29;20854;-52
2021/07/25 12:15:02;;;;;;;4.93;4.53;;;28.50;54.90;;;;;;4935921;28;20524;-48
2021/07/25 12:17:47;;;;;;;5.50;4.97;;;28.60;54.20;;;;;;4935460;29;21087;-50
2021/07/25 12:20:28;;;;;;;4.60;4.20;;;28.60;53.80;;;;;;4949402;29;20435;-50
2021/07/25 12:23:03;;;;;;;5.43;5.00;;;28.50;53.20;;;;;;4935336;29;20440;-48
2021/07/25 12:25:56;;;;;;;5.00;4.50;;;28.50;53.20;;;;;;4935205;29;20901;-51
2021/07/25 12:28:23;;;;;;;4.63;4.23;;;28.20;53.10;;;;;;4934824;29;20448;-48
2021/07/25 12:30:57;;;;;;;4.90;3.97;;;28.10;52.90;;;;;;4934944;29;20575;-51
2021/07/25 12:33:25;;;;;;;5.10;4.70;;;28.10;53.40;;;;;;4935192;29;20799;-53
2021/07/25 12:35:51;;;;;;;4.70;4.30;;;28.10;53.90;;;;;;4934903;29;20934;-51
2021/07/25 12:38:18;;;;;;;5.10;4.60;;;27.90;54.10;;;;;;4933898;29;20485;-52
2021/07/25 12:40:48;;;;;;;4.97;4.33;;;28.00;54.10;;;;;;4934914;29;20439;-49
2021/07/25 12:43:21;;;;;;;6.17;5.57;;;28.10;54.30;;;;;;4935209;29;20441;-52
2021/07/25 12:45:48;;;;;;;5.30;4.80;;;28.10;54.10;;;;;;4946019;29;20431;-51
2021/07/25 12:48:28;;;;;;;5.10;4.60;;;28.20;53.70;;;;;;4954272;29;20440;-47
2021/07/25 12:53:41;;;;;;;5.50;5.00;;;28.10;53.60;;;;;;4953988;28;20435;-50